createdAt,value
2023-03-28T00:01:10.819Z,5.70
2023-03-28T00:03:40.783Z,5.40
2023-03-28T00:06:11.302Z,5.40
2023-03-28T00:08:40.581Z,5.05
2023-03-28T00:11:12.858Z,5.60
2023-03-28T00:13:41.259Z,5.18
2023-03-28T00:16:13.604Z,5.22
2023-03-28T00:18:43.007Z,4.53
2023-03-28T00:21:23.654Z,5.90
2023-03-28T00:23:53.635Z,4.90
2023-03-28T00:26:26.989Z,4.88
2023-03-28T00:28:56.249Z,4.43
2023-03-28T00:31:25.316Z,4.55
2023-03-28T00:33:53.874Z,5.35
2023-03-28T00:36:26.602Z,5.28
2023-03-28T00:38:55.310Z,5.70
2023-03-28T00:41:26.664Z,5.35
2023-03-28T00:43:56.417Z,5.10
2023-03-28T00:46:29.911Z,4.70
2023-03-28T00:49:02.742Z,4.57
2023-03-28T00:51:34.342Z,4.85
2023-03-28T00:54:04.079Z,4.60
2023-03-28T00:56:38.134Z,5.38
2023-03-28T00:59:11.420Z,4.90
2023-03-28T01:01:39.850Z,4.65
2023-03-28T01:04:10.476Z,5.05
2023-03-28T01:06:43.040Z,4.45
2023-03-28T01:09:17.025Z,4.80
2023-03-28T01:11:52.218Z,5.13
2023-03-28T01:14:24.756Z,4.53
2023-03-28T01:16:56.442Z,5.10
2023-03-28T01:19:42.917Z,5.32
2023-03-28T01:22:38.488Z,4.60
2023-03-28T01:25:28.515Z,4.53
2023-03-28T01:28:02.564Z,4.32
2023-03-28T01:31:27.860Z,4.68
2023-03-28T01:34:44.559Z,4.70
2023-03-28T01:37:34.451Z,4.60
2023-03-28T01:40:17.417Z,4.70
2023-03-28T01:42:56.582Z,4.30
2023-03-28T01:45:31.953Z,4.57
2023-03-28T01:48:08.315Z,3.80
2023-03-28T01:50:42.722Z,4.65
2023-03-28T01:53:18.420Z,3.50
2023-03-28T01:55:54.085Z,3.97
2023-03-28T01:58:29.943Z,3.90
2023-03-28T02:01:08.062Z,4.53
2023-03-28T02:03:41.388Z,4.55
2023-03-28T02:06:21.199Z,4.30
2023-03-28T02:08:53.491Z,3.70
2023-03-28T02:11:35.727Z,4.03
2023-03-28T02:14:41.416Z,4.55
2023-03-28T02:17:30.707Z,3.80
2023-03-28T02:20:15.146Z,3.75
2023-03-28T02:23:12.990Z,3.55
2023-03-28T02:26:09.201Z,3.05
2023-03-28T02:28:58.027Z,3.33
2023-03-28T02:31:39.733Z,3.42
2023-03-28T02:34:08.114Z,2.95
2023-03-28T02:36:47.153Z,3.92
2023-03-28T02:39:39.942Z,3.10
2023-03-28T02:42:38.074Z,2.70
2023-03-28T02:45:30.368Z,2.80
2023-03-28T02:48:07.977Z,2.78
2023-03-28T02:50:40.914Z,2.85
2023-03-28T02:53:15.505Z,3.00
2023-03-28T02:55:54.554Z,3.15
2023-03-28T02:58:49.852Z,2.80
2023-03-28T03:01:18.268Z,3.25
2023-03-28T03:03:48.403Z,3.28
2023-03-28T03:06:18.028Z,3.10
2023-03-28T03:08:46.390Z,3.25
2023-03-28T03:11:14.707Z,3.67
2023-03-28T03:13:44.418Z,3.90
2023-03-28T03:16:12.809Z,4.03
2023-03-28T03:18:41.144Z,3.72
2023-03-28T03:21:09.528Z,3.97
2023-03-28T03:23:38.337Z,3.60
2023-03-28T03:26:07.850Z,4.00
2023-03-28T03:28:46.378Z,4.30
2023-03-28T03:31:14.733Z,3.83
2023-03-28T03:34:18.404Z,4.80
2023-03-28T03:36:53.212Z,4.60
2023-03-28T03:39:22.029Z,4.38
2023-03-28T03:41:50.540Z,4.93
2023-03-28T03:44:20.338Z,5.05
2023-03-28T03:46:48.700Z,4.25
2023-03-28T03:49:17.060Z,4.47
2023-03-28T03:51:45.385Z,4.80
2023-03-28T03:54:17.179Z,4.72
2023-03-28T03:56:45.948Z,4.15
2023-03-28T03:59:16.241Z,5.13
2023-03-28T04:01:48.020Z,4.35
2023-03-28T04:04:40.649Z,4.00
2023-03-28T04:07:17.634Z,4.00
2023-03-28T04:09:48.840Z,4.50
2023-03-28T04:12:17.500Z,4.05
2023-03-28T04:14:51.286Z,4.35
2023-03-28T04:17:44.477Z,3.65
2023-03-28T04:20:21.037Z,4.60
2023-03-28T04:23:20.519Z,4.30
2023-03-28T04:25:50.482Z,3.70
2023-03-28T04:28:27.980Z,4.72
2023-03-28T04:31:04.621Z,4.20
2023-03-28T04:33:34.372Z,4.35
2023-03-28T04:36:05.995Z,3.85
2023-03-28T04:38:36.617Z,4.75
2023-03-28T04:41:19.458Z,4.18
2023-03-28T04:44:06.717Z,4.40
2023-03-28T04:46:42.312Z,4.43
2023-03-28T04:49:16.042Z,4.60
2023-03-28T04:51:44.353Z,4.57
2023-03-28T04:54:12.629Z,4.78
2023-03-28T04:57:05.082Z,4.40
2023-03-28T04:59:44.111Z,4.03
2023-03-28T05:02:18.461Z,3.65
2023-03-28T05:05:02.527Z,3.75
2023-03-28T05:07:30.922Z,4.03
2023-03-28T05:09:59.315Z,4.85
2023-03-28T05:12:34.929Z,4.82
2023-03-28T05:15:07.443Z,4.82
2023-03-28T05:17:47.264Z,4.82
2023-03-28T05:20:43.868Z,4.85
2023-03-28T05:23:12.983Z,5.10
2023-03-28T05:25:43.993Z,4.88
2023-03-28T05:28:13.124Z,4.80
2023-03-28T05:30:49.443Z,5.80
2023-03-28T05:33:18.247Z,5.53
2023-03-28T05:35:49.065Z,5.40
2023-03-28T05:38:17.934Z,4.90
2023-03-28T05:40:52.179Z,5.28
2023-03-28T05:43:20.361Z,7.40
2023-03-28T05:45:49.369Z,4.95
2023-03-28T05:48:23.604Z,4.90
2023-03-28T05:50:53.323Z,5.03
2023-03-28T05:53:22.922Z,5.45
2023-03-28T05:55:51.834Z,5.65
2023-03-28T05:58:20.285Z,7.07
2023-03-28T06:00:48.767Z,5.85
2023-03-28T06:03:17.785Z,7.93
2023-03-28T06:05:48.164Z,5.93
2023-03-28T06:08:27.099Z,8.30
2023-03-28T06:10:55.404Z,7.97
2023-03-28T06:13:28.628Z,7.88
2023-03-28T06:15:57.311Z,6.13
2023-03-28T06:18:34.622Z,6.13
2023-03-28T06:21:02.992Z,8.30
2023-03-28T06:23:32.861Z,7.30
2023-03-28T06:26:01.552Z,6.88
2023-03-28T06:28:37.087Z,6.55
2023-03-28T06:31:17.901Z,10.63
2023-03-28T06:33:46.598Z,5.80
2023-03-28T06:36:15.012Z,6.20
2023-03-28T06:38:45.904Z,5.75
2023-03-28T06:41:14.444Z,6.40
2023-03-28T06:43:43.058Z,7.15
2023-03-28T06:46:32.323Z,6.03
2023-03-28T06:49:01.277Z,6.30
2023-03-28T06:51:53.261Z,6.40
2023-03-28T06:54:23.077Z,6.60
2023-03-28T06:56:51.487Z,6.10
2023-03-28T06:59:20.004Z,6.05
2023-03-28T07:01:53.650Z,6.35
2023-03-28T07:04:28.227Z,5.80
2023-03-28T07:06:56.733Z,6.82
2023-03-28T07:09:26.353Z,7.13
2023-03-28T07:12:05.494Z,6.45
2023-03-28T07:14:33.858Z,6.13
2023-03-28T07:17:03.007Z,6.20
2023-03-28T07:19:31.537Z,6.60
2023-03-28T07:22:00.127Z,6.10
2023-03-28T07:24:30.025Z,6.60
2023-03-28T07:29:37.802Z,6.65
2023-03-28T07:32:06.578Z,6.20
2023-03-28T07:34:34.961Z,6.15
2023-03-28T07:37:05.374Z,5.30
2023-03-28T07:39:58.588Z,4.68
2023-03-28T07:42:28.916Z,4.40
2023-03-28T07:44:57.195Z,4.47
2023-03-28T07:47:25.853Z,4.88
2023-03-28T07:49:54.429Z,4.80
2023-03-28T07:52:24.045Z,4.65
2023-03-28T07:54:52.469Z,4.00
2023-03-28T07:57:23.365Z,3.88
2023-03-28T08:00:13.355Z,3.90
2023-03-28T08:02:44.883Z,4.28
2023-03-28T08:05:14.937Z,4.57
2023-03-28T08:07:46.291Z,3.78
2023-03-28T08:10:15.347Z,4.57
2023-03-28T08:12:45.144Z,3.95
2023-03-28T08:15:13.446Z,4.50
2023-03-28T08:17:41.832Z,4.05
2023-03-28T08:20:11.856Z,3.80
2023-03-28T08:23:02.970Z,3.65
2023-03-28T08:25:49.629Z,3.60
2023-03-28T08:28:23.196Z,5.00
2023-03-28T08:30:52.061Z,6.00
2023-03-28T08:33:20.344Z,3.20
2023-03-28T08:35:48.973Z,3.47
2023-03-28T08:38:19.958Z,3.13
2023-03-28T08:40:59.077Z,4.13
2023-03-28T08:43:54.109Z,3.05
2023-03-28T08:46:25.340Z,3.25
2023-03-28T08:48:55.883Z,3.08
2023-03-28T08:51:27.913Z,2.78
2023-03-28T08:54:04.709Z,2.90
2023-03-28T08:56:37.325Z,4.55
2023-03-28T08:59:08.771Z,7.53
2023-03-28T09:01:37.840Z,3.28
2023-03-28T09:04:06.879Z,3.90
2023-03-28T09:06:41.033Z,4.70
2023-03-28T09:09:34.204Z,6.45
2023-03-28T09:12:34.524Z,5.75
2023-03-28T09:15:24.011Z,3.78
2023-03-28T09:18:07.321Z,3.47
2023-03-28T09:20:44.220Z,3.35
2023-03-28T09:24:02.735Z,3.22
2023-03-28T09:26:58.646Z,3.33
2023-03-28T09:29:28.711Z,3.55
2023-03-28T09:32:04.581Z,3.20
2023-03-28T09:34:44.812Z,2.95
2023-03-28T09:37:22.663Z,3.28
2023-03-28T09:39:53.880Z,3.15
2023-03-28T09:42:33.425Z,2.60
2023-03-28T09:45:40.469Z,3.88
2023-03-28T09:48:43.421Z,2.83
2023-03-28T09:51:17.449Z,2.80
2023-03-28T09:53:47.088Z,3.80
2023-03-28T09:56:26.399Z,3.25
2023-03-28T09:58:58.388Z,3.10
2023-03-28T10:01:43.828Z,2.72
2023-03-28T10:04:37.643Z,2.55
2023-03-28T10:07:33.917Z,2.60
2023-03-28T10:10:20.249Z,2.30
2023-03-28T10:12:56.847Z,2.25
2023-03-28T10:15:34.716Z,2.10
2023-03-28T10:18:20.476Z,2.63
2023-03-28T10:21:06.983Z,2.20
2023-03-28T10:23:36.902Z,1.95
2023-03-28T10:26:06.303Z,2.47
2023-03-28T10:28:36.650Z,3.28
2023-03-28T10:31:06.199Z,2.20
2023-03-28T10:33:42.748Z,2.03
2023-03-28T10:36:44.664Z,2.40
2023-03-28T10:39:25.311Z,2.33
2023-03-28T10:42:13.874Z,2.20
2023-03-28T10:45:05.794Z,2.30
2023-03-28T10:47:37.754Z,1.98
2023-03-28T10:50:28.821Z,2.10
2023-03-28T10:53:14.345Z,1.70
2023-03-28T10:55:50.543Z,2.10
2023-03-28T10:58:36.161Z,1.60
2023-03-28T11:01:17.979Z,2.22
2023-03-28T11:04:12.754Z,2.13
2023-03-28T11:06:49.095Z,1.30
2023-03-28T11:09:32.910Z,1.70
2023-03-28T11:12:43.804Z,2.08
2023-03-28T11:15:28.541Z,1.90
2023-03-28T11:18:18.143Z,1.90
2023-03-28T11:20:55.287Z,1.60
2023-03-28T11:23:44.492Z,1.55
2023-03-28T11:26:42.064Z,3.80
2023-03-28T11:29:44.103Z,1.70
2023-03-28T11:32:21.438Z,1.73
2023-03-28T11:35:03.034Z,1.77
2023-03-28T11:37:37.555Z,1.48
2023-03-28T11:40:11.629Z,2.97
2023-03-28T11:42:57.469Z,1.42
2023-03-28T11:45:43.314Z,1.80
2023-03-28T11:48:24.313Z,1.93
2023-03-28T11:51:03.614Z,2.15
2023-03-28T11:53:49.272Z,2.05
2023-03-28T11:56:29.337Z,2.15
2023-03-28T11:59:13.845Z,2.20
2023-03-28T12:01:47.267Z,3.07
2023-03-28T12:04:20.516Z,2.10
2023-03-28T12:07:02.183Z,1.50
2023-03-28T12:09:39.094Z,1.55
2023-03-28T12:12:12.996Z,1.55
2023-03-28T12:14:53.631Z,2.00
2023-03-28T12:17:48.746Z,1.80
2023-03-28T12:20:23.753Z,1.57
2023-03-28T12:22:57.451Z,2.13
2023-03-28T12:25:52.321Z,1.48
2023-03-28T12:28:27.176Z,1.30
2023-03-28T12:31:05.852Z,1.77
2023-03-28T12:33:46.856Z,1.55
2023-03-28T12:36:41.332Z,1.25
2023-03-28T12:39:24.363Z,1.57
2023-03-28T12:41:55.157Z,2.00
2023-03-28T12:44:28.762Z,2.33
2023-03-28T12:47:04.081Z,1.83
2023-03-28T12:49:43.011Z,1.30
2023-03-28T12:52:16.898Z,1.27
2023-03-28T12:54:58.328Z,1.33
2023-03-28T12:57:48.460Z,1.10
2023-03-28T13:00:43.064Z,1.50
2023-03-28T13:03:54.486Z,1.60
2023-03-28T13:06:43.891Z,2.00
2023-03-28T13:09:36.404Z,1.40
2023-03-28T13:12:19.538Z,1.20
2023-03-28T13:15:00.550Z,1.33
2023-03-28T13:17:30.770Z,1.57
2023-03-28T13:20:13.960Z,1.30
2023-03-28T13:22:50.304Z,1.30
2023-03-28T13:25:32.238Z,1.40
2023-03-28T13:28:01.993Z,1.70
2023-03-28T13:30:31.726Z,2.00
2023-03-28T13:33:02.241Z,1.40
2023-03-28T13:35:46.356Z,1.20
2023-03-28T13:38:22.972Z,1.60
2023-03-28T13:40:54.805Z,1.40
2023-03-28T13:43:25.491Z,1.57
2023-03-28T13:45:57.639Z,1.30
2023-03-28T13:48:31.662Z,1.20
2023-03-28T13:51:05.546Z,1.10
2023-03-28T13:53:46.390Z,1.77
2023-03-28T13:56:24.392Z,1.60
2023-03-28T13:58:55.448Z,1.30
2023-03-28T14:01:25.923Z,1.80
2023-03-28T14:03:56.022Z,1.57
2023-03-28T14:06:27.613Z,1.30
2023-03-28T14:08:57.637Z,1.60
2023-03-28T14:11:30.546Z,1.70
2023-03-28T14:14:08.879Z,1.60
2023-03-28T14:16:38.680Z,1.67
2023-03-28T14:19:08.601Z,1.30
2023-03-28T14:21:38.913Z,1.40
2023-03-28T14:24:08.873Z,1.30
2023-03-28T14:26:38.685Z,1.50
2023-03-28T14:29:11.996Z,1.30
2023-03-28T14:31:46.157Z,1.40
2023-03-28T14:34:18.709Z,1.73
2023-03-28T14:37:01.114Z,1.40
2023-03-28T14:39:31.402Z,1.43
2023-03-28T14:42:02.469Z,1.83
2023-03-28T14:44:33.396Z,1.50
2023-03-28T14:47:02.214Z,1.30
2023-03-28T14:49:31.753Z,1.27
2023-03-28T14:52:03.930Z,1.53
2023-03-28T14:54:35.726Z,1.40
2023-03-28T14:57:05.711Z,1.50
2023-03-28T14:59:38.174Z,2.20
2023-03-28T15:02:07.429Z,1.23
2023-03-28T15:04:36.872Z,1.87
2023-03-28T15:07:09.015Z,1.93
2023-03-28T15:09:37.301Z,1.60
2023-03-28T15:12:09.267Z,1.40
2023-03-28T15:14:42.613Z,1.53
2023-03-28T15:17:20.166Z,2.00
2023-03-28T15:19:52.967Z,1.27
2023-03-28T15:22:26.760Z,1.43
2023-03-28T15:24:56.585Z,1.83
2023-03-28T15:27:28.800Z,1.30
2023-03-28T15:29:57.259Z,1.50
2023-03-28T15:32:29.207Z,1.30
2023-03-28T15:35:01.532Z,1.67
2023-03-28T15:37:42.055Z,1.77
2023-03-28T15:40:24.716Z,1.33
2023-03-28T15:42:53.888Z,1.27
2023-03-28T15:45:44.673Z,1.40
2023-03-28T15:48:19.899Z,2.17
2023-03-28T15:50:54.517Z,2.17
2023-03-28T15:53:28.528Z,2.47
2023-03-28T15:55:59.211Z,1.60
2023-03-28T15:58:27.652Z,4.80
2023-03-28T16:00:55.946Z,1.50
2023-03-28T16:03:34.355Z,1.43
2023-03-28T16:06:23.215Z,1.27
2023-03-28T16:09:15.824Z,1.30
2023-03-28T16:11:46.114Z,1.53
2023-03-28T16:14:33.515Z,1.70
2023-03-28T16:17:26.072Z,1.23
2023-03-28T16:20:19.575Z,1.80
2023-03-28T16:22:48.658Z,2.20
2023-03-28T16:25:18.610Z,1.80
2023-03-28T16:27:46.773Z,1.37
2023-03-28T16:30:20.398Z,1.30
2023-03-28T16:32:48.812Z,1.80
2023-03-28T16:35:17.315Z,2.03
2023-03-28T16:37:45.553Z,2.17
2023-03-28T16:40:14.548Z,3.67
2023-03-28T16:42:44.384Z,4.93
2023-03-28T16:45:13.831Z,1.90
2023-03-28T16:47:42.330Z,1.80
2023-03-28T16:50:11.318Z,2.70
2023-03-28T16:52:40.375Z,2.03
2023-03-28T16:55:10.458Z,3.87
2023-03-28T16:57:39.038Z,1.70
2023-03-28T17:00:11.855Z,1.70
2023-03-28T17:02:40.192Z,1.87
2023-03-28T17:05:09.146Z,1.40
2023-03-28T17:07:37.495Z,1.60
2023-03-28T17:10:06.813Z,1.70
2023-03-28T17:12:35.121Z,2.40
2023-03-28T17:15:04.137Z,1.60
2023-03-28T17:17:33.906Z,1.43
2023-03-28T17:20:02.642Z,1.60
2023-03-28T17:22:31.096Z,1.60
2023-03-28T17:25:00.516Z,1.73
2023-03-28T17:27:28.713Z,1.60
2023-03-28T17:29:57.031Z,1.77
2023-03-28T17:32:25.660Z,1.67
2023-03-28T17:34:55.429Z,2.20
2023-03-28T17:37:24.499Z,2.47
2023-03-28T17:39:52.836Z,2.77
2023-03-28T17:42:21.003Z,2.23
2023-03-28T17:44:49.598Z,2.40
2023-03-28T17:47:18.177Z,2.67
2023-03-28T17:49:46.344Z,2.40
2023-03-28T17:52:16.508Z,2.90
2023-03-28T17:54:44.976Z,4.67
2023-03-28T17:57:13.216Z,4.60
2023-03-28T17:59:41.734Z,7.40
2023-03-28T18:02:11.228Z,11.87
2023-03-28T18:04:39.630Z,9.00
2023-03-28T18:07:15.924Z,9.17
2023-03-28T18:09:47.440Z,8.25
2023-03-28T18:12:15.805Z,6.88
2023-03-28T18:14:44.923Z,6.35
2023-03-28T18:17:13.029Z,3.60
2023-03-28T18:19:41.293Z,2.55
2023-03-28T18:22:09.808Z,2.60
2023-03-28T18:24:37.956Z,2.92
2023-03-28T18:27:07.546Z,2.92
2023-03-28T18:29:35.956Z,3.00
2023-03-28T18:32:04.245Z,2.80
2023-03-28T18:34:33.241Z,2.80
2023-03-28T18:37:02.580Z,2.53
2023-03-28T18:39:31.022Z,2.15
2023-03-28T18:41:59.405Z,1.98
2023-03-28T18:44:28.957Z,2.15
2023-03-28T18:46:58.359Z,2.85
2023-03-28T18:49:28.517Z,2.80
2023-03-28T18:52:04.000Z,3.53
2023-03-28T18:54:33.020Z,3.50
2023-03-28T18:57:01.836Z,3.85
2023-03-28T18:59:32.565Z,4.35
2023-03-28T19:02:01.014Z,4.07
2023-03-28T19:04:29.546Z,4.70
2023-03-28T19:06:57.772Z,5.32
2023-03-28T19:09:26.472Z,4.43
2023-03-28T19:11:55.198Z,3.55
2023-03-28T19:14:23.810Z,2.95
2023-03-28T19:16:53.949Z,3.35
2023-03-28T19:19:22.351Z,3.00
2023-03-28T19:21:51.849Z,2.33
2023-03-28T19:24:21.471Z,2.75
2023-03-28T19:26:51.073Z,2.13
2023-03-28T19:29:19.492Z,2.10
2023-03-28T19:31:47.861Z,2.50
2023-03-28T19:34:19.099Z,3.22
2023-03-28T19:36:47.738Z,3.25
2023-03-28T19:39:16.130Z,4.60
2023-03-28T19:41:44.364Z,3.92
2023-03-28T19:44:12.545Z,5.60
2023-03-28T19:46:40.965Z,6.50
2023-03-28T19:49:10.350Z,6.95
2023-03-28T19:51:39.912Z,6.53
2023-03-28T19:54:08.253Z,5.70
2023-03-28T19:56:36.667Z,4.90
2023-03-28T19:59:05.678Z,5.00
2023-03-28T20:01:33.928Z,5.63
2023-03-28T20:04:02.356Z,6.50
2023-03-28T20:06:30.808Z,6.00
2023-03-28T20:09:00.407Z,6.20
2023-03-28T20:11:29.573Z,6.15
2023-03-28T20:13:58.562Z,5.35
2023-03-28T20:16:27.323Z,5.28
2023-03-28T20:18:56.314Z,5.05
2023-03-28T20:21:24.605Z,4.70
2023-03-28T20:23:52.789Z,4.60
2023-03-28T20:26:25.913Z,4.97
2023-03-28T20:28:57.105Z,5.90
2023-03-28T20:31:25.363Z,5.00
2023-03-28T20:33:53.748Z,5.53
2023-03-28T20:36:23.382Z,5.13
2023-03-28T20:38:51.583Z,5.18
2023-03-28T20:41:20.555Z,5.47
2023-03-28T20:43:50.417Z,5.40
2023-03-28T20:46:19.742Z,4.95
2023-03-28T20:48:53.049Z,4.75
2023-03-28T20:51:23.135Z,4.43
2023-03-28T20:53:54.742Z,4.03
2023-03-28T20:56:24.879Z,3.38
2023-03-28T20:58:55.570Z,3.08
2023-03-28T21:01:27.965Z,3.65
2023-03-28T21:04:00.202Z,2.90
2023-03-28T21:06:30.744Z,3.60
2023-03-28T21:09:01.837Z,3.33
2023-03-28T21:11:32.112Z,3.28
2023-03-28T21:14:02.726Z,3.53
2023-03-28T21:16:32.706Z,3.65
2023-03-28T21:19:01.735Z,3.15
2023-03-28T21:21:33.067Z,3.45
2023-03-28T21:24:02.276Z,3.22
2023-03-28T21:26:31.397Z,3.58
2023-03-28T21:29:01.082Z,2.90
2023-03-28T21:31:30.915Z,3.70
2023-03-28T21:34:01.080Z,3.60
2023-03-28T21:36:29.539Z,3.65
2023-03-28T21:38:58.139Z,4.00
2023-03-28T21:41:28.045Z,3.95
2023-03-28T21:43:56.932Z,4.05
2023-03-28T21:46:27.325Z,4.40
2023-03-28T21:48:55.776Z,3.75
2023-03-28T21:51:24.079Z,3.83
2023-03-28T21:53:52.597Z,3.72
2023-03-28T21:56:23.796Z,3.70
2023-03-28T21:58:51.960Z,3.53
2023-03-28T22:01:20.589Z,3.63
2023-03-28T22:03:50.527Z,4.00
2023-03-28T22:06:19.921Z,4.00
2023-03-28T22:08:52.323Z,3.50
2023-03-28T22:11:27.944Z,3.58
2023-03-28T22:14:01.562Z,3.70
2023-03-28T22:16:32.454Z,3.30
2023-03-28T22:19:02.936Z,3.47
2023-03-28T22:21:31.577Z,3.33
2023-03-28T22:24:00.531Z,3.33
2023-03-28T22:26:28.621Z,3.45
2023-03-28T22:28:58.500Z,3.70
2023-03-28T22:31:27.811Z,4.13
2023-03-28T22:33:56.627Z,3.35
2023-03-28T22:36:27.115Z,3.90
2023-03-28T22:38:57.078Z,3.97
2023-03-28T22:41:25.629Z,4.10
2023-03-28T22:43:53.882Z,4.00
2023-03-28T22:46:22.258Z,3.65
2023-03-28T22:48:54.577Z,3.80
2023-03-28T22:51:25.303Z,3.28
2023-03-28T22:53:55.312Z,4.53
2023-03-28T22:56:25.492Z,4.53
2023-03-28T22:58:54.793Z,4.57
2023-03-28T23:01:26.115Z,4.18
2023-03-28T23:03:54.418Z,4.25
2023-03-28T23:06:22.733Z,4.63
2023-03-28T23:08:50.835Z,4.50
2023-03-28T23:11:21.217Z,3.90
2023-03-28T23:13:49.448Z,5.30
2023-03-28T23:16:17.794Z,4.35
2023-03-28T23:18:46.086Z,4.63
2023-03-28T23:21:14.594Z,4.05
2023-03-28T23:23:43.208Z,4.97
2023-03-28T23:26:11.762Z,4.22
2023-03-28T23:28:41.431Z,4.38
2023-03-28T23:31:10.896Z,4.47
2023-03-28T23:33:39.405Z,3.97
2023-03-28T23:36:08.492Z,4.30
2023-03-28T23:38:36.632Z,3.85
2023-03-28T23:41:04.892Z,4.13
2023-03-28T23:43:33.171Z,3.83
2023-03-28T23:46:04.339Z,4.80
2023-03-28T23:48:32.644Z,4.07
2023-03-28T23:51:02.014Z,4.00
2023-03-28T23:53:30.508Z,3.90
2023-03-28T23:55:58.737Z,3.47
2023-03-28T23:58:27.036Z,4.75
